sensor_id;sensor_type;location;lat;lon;timestamp;pressure;altitude;pressure_sealevel;temperature;humidity
19447;BME280;9862;49.462;11.054;2023-04-03T00:01:14;98877.16;;;7.61;100.00
19447;BME280;9862;49.462;11.054;2023-04-03T00:03:40;98867.69;;;7.75;100.00
19447;BME280;9862;49.462;11.054;2023-04-03T00:06:07;98873.00;;;7.75;100.00
19447;BME280;9862;49.462;11.054;2023-04-03T00:08:35;98863.38;;;7.82;100.00
19447;BME280;9862;49.462;11.054;2023-04-03T00:11:04;98863.41;;;7.58;100.00
19447;BME280;9862;49.462;11.054;2023-04-03T00:13:31;98871.41;;;7.25;100.00
19447;BME280;9862;49.462;11.054;2023-04-03T00:15:58;98873.91;;;7.10;100.00
19447;BME280;9862;49.462;11.054;2023-04-03T00:18:25;98868.78;;;7.09;100.00
19447;BME280;9862;49.462;11.054;2023-04-03T00:20:51;98873.41;;;6.99;100.00
19447;BME280;9862;49.462;11.054;2023-04-03T00:23:18;98879.00;;;7.04;100.00
19447;BME280;9862;49.462;11.054;2023-04-03T00:25:44;98875.53;;;7.11;100.00
19447;BME280;9862;49.462;11.054;2023-04-03T00:28:12;98879.03;;;7.20;100.00
19447;BME280;9862;49.462;11.054;2023-04-03T00:30:39;98878.69;;;7.31;100.00
19447;BME280;9862;49.462;11.054;2023-04-03T00:33:06;98880.31;;;7.40;100.00
19447;BME280;9862;49.462;11.054;2023-04-03T00:35:34;98872.56;;;7.39;100.00
19447;BME280;9862;49.462;11.054;2023-04-03T00:38:01;98874.03;;;7.41;100.00
19447;BME280;9862;49.462;11.054;2023-04-03T00:40:27;98876.84;;;7.48;100.00
19447;BME280;9862;49.462;11.054;2023-04-03T00:42:59;98874.84;;;7.58;100.00
19447;BME280;9862;49.462;11.054;2023-04-03T00:45:31;98881.78;;;7.59;100.00
19447;BME280;9862;49.462;11.054;2023-04-03T00:48:00;98868.88;;;7.72;100.00
19447;BME280;9862;49.462;11.054;2023-04-03T00:50:28;98874.84;;;7.58;100.00
19447;BME280;9862;49.462;11.054;2023-04-03T00:52:56;98870.00;;;7.70;100.00
19447;BME280;9862;49.462;11.054;2023-04-03T00:55:23;98870.66;;;7.80;100.00
19447;BME280;9862;49.462;11.054;2023-04-03T00:57:49;98874.34;;;7.63;100.00
19447;BME280;9862;49.462;11.054;2023-04-03T01:00:18;98875.31;;;7.62;100.00
19447;BME280;9862;49.462;11.054;2023-04-03T01:02:47;98868.72;;;7.50;100.00
19447;BME280;9862;49.462;11.054;2023-04-03T01:05:15;98866.59;;;7.45;100.00
19447;BME280;9862;49.462;11.054;2023-04-03T01:07:42;98872.19;;;7.50;100.00
19447;BME280;9862;49.462;11.054;2023-04-03T01:10:12;98867.41;;;7.54;100.00
19447;BME280;9862;49.462;11.054;2023-04-03T01:12:42;98876.00;;;7.64;100.00
19447;BME280;9862;49.462;11.054;2023-04-03T01:15:11;98864.22;;;7.66;100.00
19447;BME280;9862;49.462;11.054;2023-04-03T01:17:40;98867.06;;;7.57;100.00
19447;BME280;9862;49.462;11.054;2023-04-03T01:20:35;98875.84;;;7.57;100.00
19447;BME280;9862;49.462;11.054;2023-04-03T01:23:15;98886.28;;;7.51;100.00
19447;BME280;9862;49.462;11.054;2023-04-03T01:25:47;98873.19;;;7.49;100.00
19447;BME280;9862;49.462;11.054;2023-04-03T01:28:17;98879.66;;;7.63;100.00
19447;BME280;9862;49.462;11.054;2023-04-03T01:30:47;98871.38;;;7.50;100.00
19447;BME280;9862;49.462;11.054;2023-04-03T01:33:16;98881.16;;;7.41;100.00
19447;BME280;9862;49.462;11.054;2023-04-03T01:35:43;98882.97;;;7.32;100.00
19447;BME280;9862;49.462;11.054;2023-04-03T01:38:09;98878.69;;;7.39;100.00
19447;BME280;9862;49.462;11.054;2023-04-03T01:40:36;98877.38;;;7.35;100.00
19447;BME280;9862;49.462;11.054;2023-04-03T01:43:03;98878.19;;;7.20;100.00
19447;BME280;9862;49.462;11.054;2023-04-03T01:45:29;98883.19;;;7.14;100.00
19447;BME280;9862;49.462;11.054;2023-04-03T01:47:56;98879.00;;;7.12;100.00
19447;BME280;9862;49.462;11.054;2023-04-03T01:50:24;98883.66;;;7.10;100.00
19447;BME280;9862;49.462;11.054;2023-04-03T01:52:50;98884.31;;;7.12;100.00
19447;BME280;9862;49.462;11.054;2023-04-03T01:55:17;98875.88;;;7.08;100.00
19447;BME280;9862;49.462;11.054;2023-04-03T01:57:43;98868.75;;;7.01;100.00
19447;BME280;9862;49.462;11.054;2023-04-03T02:00:11;98885.28;;;6.95;100.00
19447;BME280;9862;49.462;11.054;2023-04-03T02:02:38;98882.81;;;6.85;100.00
19447;BME280;9862;49.462;11.054;2023-04-03T02:05:05;98881.31;;;6.74;100.00
19447;BME280;9862;49.462;11.054;2023-04-03T02:07:33;98879.00;;;6.71;100.00
19447;BME280;9862;49.462;11.054;2023-04-03T02:10:00;98871.41;;;6.84;100.00
19447;BME280;9862;49.462;11.054;2023-04-03T02:12:26;98871.91;;;6.80;100.00
19447;BME280;9862;49.462;11.054;2023-04-03T02:14:53;98870.03;;;6.64;100.00
19447;BME280;9862;49.462;11.054;2023-04-03T02:17:20;98883.94;;;6.58;100.00
19447;BME280;9862;49.462;11.054;2023-04-03T02:19:47;98880.97;;;6.61;100.00
19447;BME280;9862;49.462;11.054;2023-04-03T02:22:15;98878.63;;;6.50;100.00
19447;BME280;9862;49.462;11.054;2023-04-03T02:24:47;98885.34;;;6.36;100.00
19447;BME280;9862;49.462;11.054;2023-04-03T02:27:14;98888.97;;;6.35;100.00
19447;BME280;9862;49.462;11.054;2023-04-03T02:29:41;98881.00;;;6.27;100.00
19447;BME280;9862;49.462;11.054;2023-04-03T02:32:07;98880.75;;;6.46;100.00
19447;BME280;9862;49.462;11.054;2023-04-03T02:34:34;98871.31;;;6.44;100.00
19447;BME280;9862;49.462;11.054;2023-04-03T02:37:01;98876.00;;;6.58;100.00
19447;BME280;9862;49.462;11.054;2023-04-03T02:39:27;98878.94;;;6.55;100.00
19447;BME280;9862;49.462;11.054;2023-04-03T02:41:56;98883.94;;;6.58;100.00
19447;BME280;9862;49.462;11.054;2023-04-03T02:44:22;98881.47;;;6.56;100.00
19447;BME280;9862;49.462;11.054;2023-04-03T02:46:49;98875.00;;;6.51;100.00
19447;BME280;9862;49.462;11.054;2023-04-03T02:49:16;98879.31;;;6.68;100.00
19447;BME280;9862;49.462;11.054;2023-04-03T02:51:43;98882.91;;;6.51;100.00
19447;BME280;9862;49.462;11.054;2023-04-03T02:54:09;98880.41;;;6.41;100.00
19447;BME280;9862;49.462;11.054;2023-04-03T02:56:36;98883.53;;;6.28;100.00
19447;BME280;9862;49.462;11.054;2023-04-03T02:59:04;98891.13;;;6.31;100.00
19447;BME280;9862;49.462;11.054;2023-04-03T03:01:31;98882.25;;;6.49;100.00
19447;BME280;9862;49.462;11.054;2023-04-03T03:03:58;98878.94;;;6.55;100.00
19447;BME280;9862;49.462;11.054;2023-04-03T03:06:25;98874.09;;;6.34;100.00
19447;BME280;9862;49.462;11.054;2023-04-03T03:08:51;98873.25;;;6.25;100.00
19447;BME280;9862;49.462;11.054;2023-04-03T03:11:18;98882.53;;;6.29;100.00
19447;BME280;9862;49.462;11.054;2023-04-03T03:13:46;98880.22;;;6.35;100.00
19447;BME280;9862;49.462;11.054;2023-04-03T03:16:14;98882.72;;;6.44;100.00
19447;BME280;9862;49.462;11.054;2023-04-03T03:18:40;98880.31;;;6.59;100.00
19447;BME280;9862;49.462;11.054;2023-04-03T03:21:09;98875.34;;;6.72;100.00
19447;BME280;9862;49.462;11.054;2023-04-03T03:23:36;98877.34;;;6.70;100.00
19447;BME280;9862;49.462;11.054;2023-04-03T03:26:04;98872.22;;;6.77;100.00
19447;BME280;9862;49.462;11.054;2023-04-03T03:28:32;98878.50;;;6.84;100.00
19447;BME280;9862;49.462;11.054;2023-04-03T03:31:00;98874.56;;;6.88;100.00
19447;BME280;9862;49.462;11.054;2023-04-03T03:33:28;98867.44;;;7.13;100.00
19447;BME280;9862;49.462;11.054;2023-04-03T03:35:55;98872.06;;;6.95;100.00
19447;BME280;9862;49.462;11.054;2023-04-03T03:38:22;98875.19;;;6.82;100.00
19447;BME280;9862;49.462;11.054;2023-04-03T03:40:50;98875.69;;;6.69;100.00
19447;BME280;9862;49.462;11.054;2023-04-03T03:43:17;98874.34;;;6.65;100.00
19447;BME280;9862;49.462;11.054;2023-04-03T03:45:44;98876.84;;;6.67;100.00
19447;BME280;9862;49.462;11.054;2023-04-03T03:48:11;98870.72;;;6.74;100.00
19447;BME280;9862;49.462;11.054;2023-04-03T03:50:39;98876.84;;;6.75;100.00
19447;BME280;9862;49.462;11.054;2023-04-03T03:53:06;98879.00;;;6.71;100.00
19447;BME280;9862;49.462;11.054;2023-04-03T03:55:33;98883.28;;;6.64;100.00
19447;BME280;9862;49.462;11.054;2023-04-03T03:57:59;98881.81;;;6.70;100.00
19447;BME280;9862;49.462;11.054;2023-04-03T04:00:26;98872.22;;;6.77;100.00
19447;BME280;9862;49.462;11.054;2023-04-03T04:02:53;98868.44;;;6.87;100.00
19447;BME280;9862;49.462;11.054;2023-04-03T04:05:21;98874.06;;;7.01;100.00
19447;BME280;9862;49.462;11.054;2023-04-03T04:07:49;98873.72;;;6.87;100.00
19447;BME280;9862;49.462;11.054;2023-04-03T04:10:16;98882.78;;;6.69;100.00
19447;BME280;9862;49.462;11.054;2023-04-03T04:12:42;98884.25;;;6.63;100.00
19447;BME280;9862;49.462;11.054;2023-04-03T04:15:10;98888.94;;;6.94;100.00
19447;BME280;9862;49.462;11.054;2023-04-03T04:17:36;98876.53;;;6.86;100.00
19447;BME280;9862;49.462;11.054;2023-04-03T04:20:03;98881.63;;;6.63;100.00
19447;BME280;9862;49.462;11.054;2023-04-03T04:22:30;98886.19;;;6.45;100.00
19447;BME280;9862;49.462;11.054;2023-04-03T04:24:58;98881.88;;;6.36;100.00
19447;BME280;9862;49.462;11.054;2023-04-03T04:27:25;98886.22;;;6.53;100.00
19447;BME280;9862;49.462;11.054;2023-04-03T04:29:51;98885.41;;;6.60;100.00
19447;BME280;9862;49.462;11.054;2023-04-03T04:32:18;98881.28;;;6.50;100.00
19447;BME280;9862;49.462;11.054;2023-04-03T04:34:44;98886.09;;;6.63;100.00
19447;BME280;9862;49.462;11.054;2023-04-03T04:37:11;98881.47;;;6.56;100.00
19447;BME280;9862;49.462;11.054;2023-04-03T04:39:37;98890.06;;;6.58;100.00
19447;BME280;9862;49.462;11.054;2023-04-03T04:42:05;98880.94;;;6.53;100.00
19447;BME280;9862;49.462;11.054;2023-04-03T04:44:33;98890.16;;;6.41;100.00
19447;BME280;9862;49.462;11.054;2023-04-03T04:47:00;98886.84;;;6.30;100.00
19447;BME280;9862;49.462;11.054;2023-04-03T04:49:26;98897.41;;;6.30;100.00
19447;BME280;9862;49.462;11.054;2023-04-03T04:51:53;98901.03;;;6.29;100.00
19447;BME280;9862;49.462;11.054;2023-04-03T04:54:19;98898.44;;;6.46;100.00
19447;BME280;9862;49.462;11.054;2023-04-03T04:56:46;98898.13;;;6.49;100.00
19447;BME280;9862;49.462;11.054;2023-04-03T04:59:14;98905.72;;;6.52;100.00
19447;BME280;9862;49.462;11.054;2023-04-03T05:01:40;98906.75;;;6.59;100.00
19447;BME280;9862;49.462;11.054;2023-04-03T05:04:07;98907.91;;;6.65;100.00
19447;BME280;9862;49.462;11.054;2023-04-03T05:06:34;98899.00;;;6.74;100.00
19447;BME280;9862;49.462;11.054;2023-04-03T05:09:01;98903.47;;;6.73;100.00
19447;BME280;9862;49.462;11.054;2023-04-03T05:11:27;98913.38;;;6.71;100.00
19447;BME280;9862;49.462;11.054;2023-04-03T05:13:54;98911.75;;;6.78;100.00
19447;BME280;9862;49.462;11.054;2023-04-03T05:16:22;98910.75;;;6.79;100.00
19447;BME280;9862;49.462;11.054;2023-04-03T05:18:48;98907.78;;;6.82;100.00
19447;BME280;9862;49.462;11.054;2023-04-03T05:21:14;98902.19;;;6.85;100.00
19447;BME280;9862;49.462;11.054;2023-04-03T05:23:43;98904.50;;;6.97;100.00
19447;BME280;9862;49.462;11.054;2023-04-03T05:26:09;98911.09;;;6.93;100.00
19447;BME280;9862;49.462;11.054;2023-04-03T05:28:36;98914.41;;;6.86;100.00
19447;BME280;9862;49.462;11.054;2023-04-03T05:31:03;98921.47;;;6.70;100.00
19447;BME280;9862;49.462;11.054;2023-04-03T05:33:30;98923.47;;;6.68;100.00
19447;BME280;9862;49.462;11.054;2023-04-03T05:36:02;98923.78;;;6.73;100.00
19447;BME280;9862;49.462;11.054;2023-04-03T05:38:29;98918.34;;;6.82;100.00
19447;BME280;9862;49.462;11.054;2023-04-03T05:40:56;98924.97;;;6.95;100.00
19447;BME280;9862;49.462;11.054;2023-04-03T05:43:22;98912.75;;;7.02;100.00
19447;BME280;9862;49.462;11.054;2023-04-03T05:45:49;98918.41;;;7.15;100.00
19447;BME280;9862;49.462;11.054;2023-04-03T05:48:15;98927.47;;;7.04;100.00
19447;BME280;9862;49.462;11.054;2023-04-03T05:50:43;98919.34;;;6.81;100.00
19447;BME280;9862;49.462;11.054;2023-04-03T05:53:12;98927.25;;;6.73;100.00
19447;BME280;9862;49.462;11.054;2023-04-03T05:55:41;98940.31;;;6.67;100.00
19447;BME280;9862;49.462;11.054;2023-04-03T05:58:08;98938.97;;;6.63;100.00
19447;BME280;9862;49.462;11.054;2023-04-03T06:00:34;98936.84;;;6.58;100.00
19447;BME280;9862;49.462;11.054;2023-04-03T06:03:01;98941.44;;;6.64;100.00
19447;BME280;9862;49.462;11.054;2023-04-03T06:05:27;98941.47;;;6.72;100.00
19447;BME280;9862;49.462;11.054;2023-04-03T06:07:55;98940.50;;;6.81;100.00
19447;BME280;9862;49.462;11.054;2023-04-03T06:10:22;98940.66;;;6.72;100.00
19447;BME280;9862;49.462;11.054;2023-04-03T06:12:49;98941.84;;;6.77;100.00
19447;BME280;9862;49.462;11.054;2023-04-03T06:15:15;98940.19;;;6.76;100.00
19447;BME280;9862;49.462;11.054;2023-04-03T06:17:42;98946.31;;;6.77;100.00
19447;BME280;9862;49.462;11.054;2023-04-03T06:20:10;98944.81;;;6.82;100.00
19447;BME280;9862;49.462;11.054;2023-04-03T06:22:37;98949.09;;;6.75;100.00
19447;BME280;9862;49.462;11.054;2023-04-03T06:25:06;98953.75;;;6.81;100.00
19447;BME280;9862;49.462;11.054;2023-04-03T06:27:33;98947.06;;;6.61;100.00
19447;BME280;9862;49.462;11.054;2023-04-03T06:29:59;98955.66;;;6.63;100.00
19447;BME280;9862;49.462;11.054;2023-04-03T06:32:26;98960.63;;;6.58;100.00
19447;BME280;9862;49.462;11.054;2023-04-03T06:34:53;98960.63;;;6.58;100.00
19447;BME280;9862;49.462;11.054;2023-04-03T06:37:21;98967.88;;;6.48;100.00
19447;BME280;9862;49.462;11.054;2023-04-03T06:39:51;98961.75;;;6.47;100.00
19447;BME280;9862;49.462;11.054;2023-04-03T06:42:19;98962.56;;;6.56;100.00
19447;BME280;9862;49.462;11.054;2023-04-03T06:44:46;98968.56;;;6.58;100.00
19447;BME280;9862;49.462;11.054;2023-04-03T06:47:13;98968.84;;;6.55;100.00
19447;BME280;9862;49.462;11.054;2023-04-03T06:49:41;98950.47;;;6.45;100.00
19447;BME280;9862;49.462;11.054;2023-04-03T06:52:09;98969.66;;;6.39;100.00
19447;BME280;9862;49.462;11.054;2023-04-03T06:54:37;98972.75;;;6.35;100.00
19447;BME280;9862;49.462;11.054;2023-04-03T06:57:04;98976.75;;;6.39;100.00
19447;BME280;9862;49.462;11.054;2023-04-03T06:59:32;98976.41;;;6.42;100.00
19447;BME280;9862;49.462;11.054;2023-04-03T07:01:59;98982.34;;;6.36;100.00
19447;BME280;9862;49.462;11.054;2023-04-03T07:04:26;98978.56;;;6.38;100.00
19447;BME280;9862;49.462;11.054;2023-04-03T07:06:53;98981.03;;;6.40;100.00
19447;BME280;9862;49.462;11.054;2023-04-03T07:09:20;98988.53;;;6.52;100.00
19447;BME280;9862;49.462;11.054;2023-04-03T07:11:47;98995.97;;;6.49;100.00
19447;BME280;9862;49.462;11.054;2023-04-03T07:14:14;99000.75;;;6.53;100.00
19447;BME280;9862;49.462;11.054;2023-04-03T07:16:42;98993.03;;;6.60;100.00
19447;BME280;9862;49.462;11.054;2023-04-03T07:19:09;99001.63;;;6.62;100.00
19447;BME280;9862;49.462;11.054;2023-04-03T07:21:36;99002.31;;;6.72;100.00
19447;BME280;9862;49.462;11.054;2023-04-03T07:24:03;99003.50;;;6.78;100.00
19447;BME280;9862;49.462;11.054;2023-04-03T07:26:30;99006.03;;;6.87;100.00
19447;BME280;9862;49.462;11.054;2023-04-03T07:28:57;99014.59;;;6.81;100.00
19447;BME280;9862;49.462;11.054;2023-04-03T07:31:23;99008.28;;;6.74;100.00
19447;BME280;9862;49.462;11.054;2023-04-03T07:33:51;99007.16;;;6.77;100.00
19447;BME280;9862;49.462;11.054;2023-04-03T07:36:20;99007.00;;;6.86;100.00
19447;BME280;9862;49.462;11.054;2023-04-03T07:38:47;99015.66;;;6.97;100.00
19447;BME280;9862;49.462;11.054;2023-04-03T07:41:16;99008.84;;;6.86;100.00
19447;BME280;9862;49.462;11.054;2023-04-03T07:43:43;99012.44;;;6.77;100.00
19447;BME280;9862;49.462;11.054;2023-04-03T07:46:10;99015.59;;;6.80;100.00
19447;BME280;9862;49.462;11.054;2023-04-03T07:48:37;99016.69;;;6.70;100.00
19447;BME280;9862;49.462;11.054;2023-04-03T07:51:05;99027.97;;;6.80;100.00
19447;BME280;9862;49.462;11.054;2023-04-03T07:53:31;99021.81;;;6.71;100.00
19447;BME280;9862;49.462;11.054;2023-04-03T07:55:59;99026.50;;;6.77;100.00
19447;BME280;9862;49.462;11.054;2023-04-03T07:58:28;99018.13;;;6.98;100.00
19447;BME280;9862;49.462;11.054;2023-04-03T08:00:55;99027.22;;;7.04;100.00
19447;BME280;9862;49.462;11.054;2023-04-03T08:03:21;99020.47;;;7.09;100.00
19447;BME280;9862;49.462;11.054;2023-04-03T08:05:49;99013.69;;;7.07;100.00
19447;BME280;9862;49.462;11.054;2023-04-03T08:08:20;99013.69;;;7.15;100.00
19447;BME280;9862;49.462;11.054;2023-04-03T08:10:48;99027.41;;;7.10;100.00
19447;BME280;9862;49.462;11.054;2023-04-03T08:13:16;99031.53;;;6.63;100.00
19447;BME280;9862;49.462;11.054;2023-04-03T08:15:43;99028.06;;;6.62;100.00
19447;BME280;9862;49.462;11.054;2023-04-03T08:18:10;99033.25;;;6.72;100.00
19447;BME280;9862;49.462;11.054;2023-04-03T08:20:38;99030.50;;;6.89;100.00
19447;BME280;9862;49.462;11.054;2023-04-03T08:23:06;99035.81;;;6.98;100.00
19447;BME280;9862;49.462;11.054;2023-04-03T08:25:37;99030.22;;;7.09;100.00
19447;BME280;9862;49.462;11.054;2023-04-03T08:28:04;99042.13;;;7.13;100.00
19447;BME280;9862;49.462;11.054;2023-04-03T08:30:32;99035.38;;;7.18;100.00
19447;BME280;9862;49.462;11.054;2023-04-03T08:33:00;99039.00;;;7.17;100.00
19447;BME280;9862;49.462;11.054;2023-04-03T08:35:27;99040.16;;;7.07;100.00
19447;BME280;9862;49.462;11.054;2023-04-03T08:37:54;99043.25;;;7.02;100.00
19447;BME280;9862;49.462;11.054;2023-04-03T08:40:22;99036.75;;;6.80;100.00
19447;BME280;9862;49.462;11.054;2023-04-03T08:42:57;99036.41;;;6.83;100.00
19447;BME280;9862;49.462;11.054;2023-04-03T08:45:40;99042.59;;;7.00;100.00
19447;BME280;9862;49.462;11.054;2023-04-03T08:48:13;99043.47;;;7.09;100.00
19447;BME280;9862;49.462;11.054;2023-04-03T08:50:44;99039.34;;;7.14;100.00
19447;BME280;9862;49.462;11.054;2023-04-03T08:53:15;99038.19;;;7.17;100.00
19447;BME280;9862;49.462;11.054;2023-04-03T08:55:43;99037.19;;;7.18;100.00
19447;BME280;9862;49.462;11.054;2023-04-03T08:58:15;99038.34;;;7.24;100.00
19447;BME280;9862;49.462;11.054;2023-04-03T09:00:46;99031.28;;;7.40;100.00
19447;BME280;9862;49.462;11.054;2023-04-03T09:03:15;99035.75;;;7.56;100.00
19447;BME280;9862;49.462;11.054;2023-04-03T09:05:46;99039.91;;;7.67;92.14
19447;BME280;9862;49.462;11.054;2023-04-03T09:08:23;99042.69;;;7.49;86.76
19447;BME280;9862;49.462;11.054;2023-04-03T09:10:58;99044.72;;;7.63;87.50
19447;BME280;9862;49.462;11.054;2023-04-03T09:13:31;99046.47;;;7.22;85.48
19447;BME280;9862;49.462;11.054;2023-04-03T09:16:02;99051.28;;;6.76;88.05
19447;BME280;9862;49.462;11.054;2023-04-03T09:18:32;99061.19;;;6.74;90.47
19447;BME280;9862;49.462;11.054;2023-04-03T09:21:09;99053.25;;;6.74;89.97
19447;BME280;9862;49.462;11.054;2023-04-03T09:23:42;99059.56;;;6.81;89.81
19447;BME280;9862;49.462;11.054;2023-04-03T09:26:14;99056.00;;;6.99;90.33
19447;BME280;9862;49.462;11.054;2023-04-03T09:28:44;99062.47;;;7.12;89.79
19447;BME280;9862;49.462;11.054;2023-04-03T09:31:20;99056.75;;;7.25;89.11
19447;BME280;9862;49.462;11.054;2023-04-03T09:33:48;99051.59;;;7.32;89.39
19447;BME280;9862;49.462;11.054;2023-04-03T09:36:38;99054.09;;;7.41;86.88
19447;BME280;9862;49.462;11.054;2023-04-03T09:39:04;99054.94;;;7.34;85.99
19447;BME280;9862;49.462;11.054;2023-04-03T09:41:31;99058.88;;;7.30;85.34
19447;BME280;9862;49.462;11.054;2023-04-03T09:43:59;99053.44;;;7.31;82.97
19447;BME280;9862;49.462;11.054;2023-04-03T09:46:29;99055.59;;;7.36;81.23
19447;BME280;9862;49.462;11.054;2023-04-03T09:48:58;99043.19;;;7.53;81.66
19447;BME280;9862;49.462;11.054;2023-04-03T09:51:26;99041.22;;;7.71;80.15
19447;BME280;9862;49.462;11.054;2023-04-03T09:53:54;99046.88;;;7.76;74.62
19447;BME280;9862;49.462;11.054;2023-04-03T09:56:24;99048.53;;;7.85;75.83
19447;BME280;9862;49.462;11.054;2023-04-03T09:59:12;99045.69;;;7.87;74.54
19447;BME280;9862;49.462;11.054;2023-04-03T10:01:42;99040.88;;;7.98;76.70
19447;BME280;9862;49.462;11.054;2023-04-03T10:04:11;99033.41;;;8.10;72.51
19447;BME280;9862;49.462;11.054;2023-04-03T10:06:40;99032.09;;;8.14;73.93
19447;BME280;9862;49.462;11.054;2023-04-03T10:09:18;99039.75;;;7.93;65.78
19447;BME280;9862;49.462;11.054;2023-04-03T10:12:03;99034.28;;;7.78;67.56
19447;BME280;9862;49.462;11.054;2023-04-03T10:14:33;99042.22;;;7.62;70.59
19447;BME280;9862;49.462;11.054;2023-04-03T10:17:14;99037.56;;;7.80;70.45
19447;BME280;9862;49.462;11.054;2023-04-03T10:19:46;99028.63;;;7.89;69.95
19447;BME280;9862;49.462;11.054;2023-04-03T10:22:20;99039.22;;;7.89;72.18
19447;BME280;9862;49.462;11.054;2023-04-03T10:25:00;99026.81;;;8.06;68.68
19447;BME280;9862;49.462;11.054;2023-04-03T10:27:40;99032.44;;;8.11;67.82
19447;BME280;9862;49.462;11.054;2023-04-03T10:30:20;99026.31;;;8.02;62.36
19447;BME280;9862;49.462;11.054;2023-04-03T10:32:58;99031.63;;;7.94;66.79
19447;BME280;9862;49.462;11.054;2023-04-03T10:35:38;99018.03;;;7.97;68.12
19447;BME280;9862;49.462;11.054;2023-04-03T10:38:15;99022.31;;;8.15;68.23
19447;BME280;9862;49.462;11.054;2023-04-03T10:40:51;99018.47;;;8.25;69.47
19447;BME280;9862;49.462;11.054;2023-04-03T10:43:26;99008.69;;;8.34;69.34
19447;BME280;9862;49.462;11.054;2023-04-03T10:46:02;99005.69;;;8.29;65.17
19447;BME280;9862;49.462;11.054;2023-04-03T10:48:48;99016.06;;;7.75;66.05
19447;BME280;9862;49.462;11.054;2023-04-03T10:51:24;99011.72;;;7.90;69.16
19447;BME280;9862;49.462;11.054;2023-04-03T10:53:56;99008.25;;;8.06;64.77
19447;BME280;9862;49.462;11.054;2023-04-03T10:56:30;99002.09;;;8.22;62.58
19447;BME280;9862;49.462;11.054;2023-04-03T10:59:00;99001.75;;;8.17;63.65
19447;BME280;9862;49.462;11.054;2023-04-03T11:01:31;99001.91;;;8.40;63.39
19447;BME280;9862;49.462;11.054;2023-04-03T11:04:00;98998.41;;;8.39;63.34
19447;BME280;9862;49.462;11.054;2023-04-03T11:06:34;98991.28;;;8.31;60.23
19447;BME280;9862;49.462;11.054;2023-04-03T11:09:05;98993.78;;;8.33;64.31
19447;BME280;9862;49.462;11.054;2023-04-03T11:11:36;98982.47;;;8.47;61.86
19447;BME280;9862;49.462;11.054;2023-04-03T11:14:10;98977.84;;;8.49;57.21
19447;BME280;9862;49.462;11.054;2023-04-03T11:16:46;98976.16;;;8.48;55.97
19447;BME280;9862;49.462;11.054;2023-04-03T11:19:18;98979.16;;;8.45;56.54
19447;BME280;9862;49.462;11.054;2023-04-03T11:21:54;98970.84;;;8.48;52.78
19447;BME280;9862;49.462;11.054;2023-04-03T11:24:25;98967.22;;;8.49;54.95
19447;BME280;9862;49.462;11.054;2023-04-03T11:26:54;98980.28;;;8.59;56.11
19447;BME280;9862;49.462;11.054;2023-04-03T11:29:24;98971.72;;;8.80;52.08
19447;BME280;9862;49.462;11.054;2023-04-03T11:32:18;98976.56;;;8.68;52.31
19447;BME280;9862;49.462;11.054;2023-04-03T11:34:53;98963.63;;;8.73;52.61
19447;BME280;9862;49.462;11.054;2023-04-03T11:37:30;98968.75;;;8.75;52.54
19447;BME280;9862;49.462;11.054;2023-04-03T11:40:00;98961.91;;;8.88;54.18
19447;BME280;9862;49.462;11.054;2023-04-03T11:42:33;98960.63;;;9.07;53.59
19447;BME280;9862;49.462;11.054;2023-04-03T11:45:16;98960.63;;;9.07;53.65
19447;BME280;9862;49.462;11.054;2023-04-03T11:47:51;98959.53;;;8.63;52.82
19447;BME280;9862;49.462;11.054;2023-04-03T11:50:38;98960.53;;;8.62;57.17
19447;BME280;9862;49.462;11.054;2023-04-03T11:53:27;98962.94;;;8.79;55.97
19447;BME280;9862;49.462;11.054;2023-04-03T11:55:57;98964.69;;;8.87;53.68
19447;BME280;9862;49.462;11.054;2023-04-03T11:58:25;98954.66;;;8.35;53.41
19447;BME280;9862;49.462;11.054;2023-04-03T12:01:03;98954.38;;;8.14;54.48
19447;BME280;9862;49.462;11.054;2023-04-03T12:09:32;98945.59;;;8.13;54.80
19447;BME280;9862;49.462;11.054;2023-04-03T12:12:00;98951.00;;;8.36;55.73
19447;BME280;9862;49.462;11.054;2023-04-03T12:14:28;98945.91;;;8.66;56.80
19447;BME280;9862;49.462;11.054;2023-04-03T12:16:56;98943.47;;;8.87;57.03
19447;BME280;9862;49.462;11.054;2023-04-03T12:19:34;98938.06;;;8.80;53.88
19447;BME280;9862;49.462;11.054;2023-04-03T12:22:11;98938.50;;;8.61;54.44
19447;BME280;9862;49.462;11.054;2023-04-03T12:24:39;98935.72;;;8.46;54.46
19447;BME280;9862;49.462;11.054;2023-04-03T12:27:23;98929.56;;;8.54;56.51
19447;BME280;9862;49.462;11.054;2023-04-03T12:29:55;98927.06;;;8.60;57.58
19447;BME280;9862;49.462;11.054;2023-04-03T12:32:55;98923.22;;;8.86;57.60
19447;BME280;9862;49.462;11.054;2023-04-03T12:35:29;98922.91;;;9.12;55.82
19447;BME280;9862;49.462;11.054;2023-04-03T12:41:15;98911.19;;;8.75;55.71
19447;BME280;9862;49.462;11.054;2023-04-03T12:43:52;98913.25;;;8.18;56.45
19447;BME280;9862;49.462;11.054;2023-04-03T12:46:24;98904.38;;;8.11;58.64
19447;BME280;9862;49.462;11.054;2023-04-03T12:48:55;98916.66;;;8.51;61.72
19447;BME280;9862;49.462;11.054;2023-04-03T12:51:29;98902.03;;;8.78;58.68
19447;BME280;9862;49.462;11.054;2023-04-03T12:54:04;98898.88;;;9.05;57.45
19447;BME280;9862;49.462;11.054;2023-04-03T12:56:38;98893.19;;;9.31;55.32
19447;BME280;9862;49.462;11.054;2023-04-03T12:59:16;98887.28;;;9.44;53.61
19447;BME280;9862;49.462;11.054;2023-04-03T13:01:44;98894.19;;;9.68;55.23
19447;BME280;9862;49.462;11.054;2023-04-03T13:04:18;98895.94;;;9.90;51.44
19447;BME280;9862;49.462;11.054;2023-04-03T13:06:47;98892.28;;;10.06;49.43
19447;BME280;9862;49.462;11.054;2023-04-03T13:09:22;98891.38;;;10.14;49.30
19447;BME280;9862;49.462;11.054;2023-04-03T13:11:50;98894.66;;;10.01;46.15
19447;BME280;9862;49.462;11.054;2023-04-03T13:14:20;98897.59;;;9.77;47.91
19447;BME280;9862;49.462;11.054;2023-04-03T13:16:55;98894.03;;;9.99;51.07
19447;BME280;9862;49.462;11.054;2023-04-03T13:19:23;98892.00;;;10.01;50.75
19447;BME280;9862;49.462;11.054;2023-04-03T13:21:57;98888.34;;;9.87;52.02
19447;BME280;9862;49.462;11.054;2023-04-03T13:24:25;98884.66;;;9.73;51.79